Terminal Aerodrome Forecast
Issued by NWS

Current Version | Previous Version | Text Only | Print | Product List | Glossary On
Versions: 1 2 3 4 5 6 7 8 9 10 11 12 13 14 15 16 17 18 19 20 21 22 23 24 25 26 27 28 29 30 31 32 33 34 35 36 37 38 39 40 41 42 43 44
000
FTAK31 PANC 140625 AAA
TAFADQ
TAF AMD
PADQ 140625Z 1406/1506 03015KT 5SM -RA SCT015 OVC022
      TEMPO 1406/1409 03015G20KT 3SM -RA BR BKN008 BKN015
     FM140900 01011KT 5SM -RA BKN008 OVC015
     FM141200 31008KT 6SM -RA BKN008 OVC015
     FM141500 22008KT P6SM VCSH SCT015 BKN025
     FM142100 17008KT P6SM VCSH BKN035=

USA.gov is the U.S. government's official web portal to all federal, state and local government web resources and services.